Pauma Valley, California
Current Conditions -  °F | °C
As of 2:55 AM on Friday 24 Oct 2014 (Local Time) from KL18 Reporting Station
Clear Clear  
Wind Chill: 19°   Ceiling: Unl
Heat Index: 19°   Visibility: 10mi
Dew Point:   Wind: 5mph
Humidity: 32%   Direction: 20°NNE
Pressure: 29.97"   Gusts: NA
Location:  33.3°N, 116.98°W
Report Text: KL18 240955Z AUTO 02004KT 10SM CLR 19/02 A2997 RMK AO2
Loading
Personal Weather Stations






























Interactive Weather Map
Tropical Storm Tracking
New forecast layout! Learn more

10-Day Weather Forecast

Advertisements
Track Severe Weather on mobile